Time;durP1;ratioP1;P1;durP2;ratioP2;P2;SDS_P1;SDS_P2;PMS_P1;PMS_P2;Temp;Humidity;BMP_temperature;BMP_pressure;BME280_temperature;BME280_humidity;BME280_pressure;Samples;Min_cycle;Max_cycle;Signal;HPM_P1;HPM_P2
2023/05/31 00:01:47;;;;;;;5.60;4.63;;;13.60;99.90;;;;;;6243145;23;20019;-70
2023/05/31 00:04:12;;;;;;;6.28;4.90;;;13.60;99.90;;;;;;6242640;23;20073;-70
2023/05/31 00:06:38;;;;;;;5.97;4.57;;;13.60;99.90;;;;;;6242554;23;20004;-70
2023/05/31 00:09:03;;;;;;;6.10;4.72;;;13.60;99.90;;;;;;6242879;23;20087;-70
2023/05/31 00:11:29;;;;;;;5.65;4.90;;;13.60;99.90;;;;;;6242737;23;20062;-70
2023/05/31 00:13:55;;;;;;;7.05;5.05;;;13.50;99.90;;;;;;6242987;23;20004;-70
2023/05/31 00:16:20;;;;;;;6.63;4.72;;;13.50;99.90;;;;;;6242700;23;20088;-70
2023/05/31 00:18:46;;;;;;;5.82;5.22;;;13.50;99.90;;;;;;6216274;23;20004;-70
2023/05/31 00:21:12;;;;;;;7.07;5.28;;;13.50;99.90;;;;;;6215075;23;20073;-70
2023/05/31 00:23:37;;;;;;;6.80;5.28;;;13.50;99.90;;;;;;6242821;23;20050;-70
2023/05/31 00:26:03;;;;;;;7.18;5.53;;;13.40;99.90;;;;;;6242565;23;20031;-70
2023/05/31 00:28:28;;;;;;;7.07;5.05;;;13.40;99.90;;;;;;6242596;23;20008;-70
2023/05/31 00:30:54;;;;;;;8.32;5.55;;;13.40;99.90;;;;;;6242788;23;20074;-70
2023/05/31 00:33:20;;;;;;;6.88;4.50;;;13.30;99.90;;;;;;6242524;23;20027;-70
2023/05/31 00:35:45;;;;;;;8.15;5.38;;;13.30;99.90;;;;;;6242150;23;20077;-70
2023/05/31 00:38:11;;;;;;;7.97;6.22;;;13.30;99.90;;;;;;6242292;23;20008;-70
2023/05/31 00:40:36;;;;;;;7.25;4.82;;;13.30;99.90;;;;;;6242845;23;20000;-70
2023/05/31 00:43:02;;;;;;;9.35;6.45;;;13.30;99.90;;;;;;6242729;23;19996;-71
2023/05/31 00:45:28;;;;;;;7.78;5.72;;;13.20;99.90;;;;;;6242180;23;20004;-70
2023/05/31 00:47:55;;;;;;;7.00;5.75;;;13.20;99.90;;;;;;6242654;23;20004;-70
2023/05/31 00:50:21;;;;;;;7.90;6.35;;;13.20;99.90;;;;;;6241720;23;20007;-70
2023/05/31 00:52:49;;;;;;;7.28;5.70;;;13.20;99.90;;;;;;6242660;23;20008;-70
2023/05/31 00:55:16;;;;;;;7.20;6.25;;;13.20;99.90;;;;;;6241807;23;20008;-70
2023/05/31 00:57:41;;;;;;;8.73;5.60;;;13.10;99.90;;;;;;6242574;23;20011;-71
2023/05/31 01:00:08;;;;;;;11.20;6.55;;;13.10;99.90;;;;;;6242224;23;19997;-70
2023/05/31 01:02:38;;;;;;;7.93;6.10;;;13.10;99.90;;;;;;6242319;23;20000;-70
2023/05/31 01:05:07;;;;;;;7.63;5.88;;;13.10;99.90;;;;;;6241819;23;20004;-69
2023/05/31 01:07:33;;;;;;;9.00;5.53;;;13.10;99.90;;;;;;6242261;23;20000;-70
2023/05/31 01:09:59;;;;;;;9.55;6.22;;;13.00;99.90;;;;;;6242407;23;20014;-70
2023/05/31 01:12:52;;;;;;;9.55;5.70;;;13.00;99.90;;;;;;6242103;23;20023;-70
2023/05/31 01:15:27;;;;;;;8.60;6.55;;;13.00;99.90;;;;;;6242028;23;20004;-70
2023/05/31 01:18:25;;;;;;;7.80;5.78;;;13.00;99.90;;;;;;6242262;23;20327;-70
2023/05/31 01:20:53;;;;;;;11.40;7.05;;;13.00;99.90;;;;;;6241658;23;20000;-70
2023/05/31 01:24:00;;;;;;;8.93;6.45;;;12.90;99.90;;;;;;6241987;23;20307;-70
2023/05/31 01:26:46;;;;;;;11.18;6.75;;;12.90;99.90;;;;;;6241731;23;20020;-70
2023/05/31 01:29:15;;;;;;;8.68;6.22;;;12.90;99.90;;;;;;6241615;23;20344;-70
2023/05/31 01:31:42;;;;;;;5.78;4.97;;;12.90;99.90;;;;;;6242075;23;20442;-70
2023/05/31 01:34:08;;;;;;;11.80;7.43;;;12.90;99.90;;;;;;6241560;23;20110;-70
2023/05/31 01:36:34;;;;;;;9.18;7.50;;;12.80;99.90;;;;;;6241402;23;20011;-70
2023/05/31 01:39:02;;;;;;;9.13;7.03;;;12.80;99.90;;;;;;6242280;23;20006;-70
2023/05/31 01:41:29;;;;;;;10.40;6.97;;;12.80;99.90;;;;;;6241799;23;20024;-70
2023/05/31 01:43:55;;;;;;;9.13;6.63;;;12.80;99.90;;;;;;6215026;23;20000;-70
2023/05/31 01:46:21;;;;;;;13.45;8.88;;;12.80;99.90;;;;;;6241670;23;20298;-70
2023/05/31 01:48:47;;;;;;;8.48;6.28;;;12.70;99.90;;;;;;6241428;23;20011;-70
2023/05/31 01:51:14;;;;;;;8.52;6.30;;;12.80;99.90;;;;;;6241806;23;20011;-70
2023/05/31 01:53:41;;;;;;;10.00;7.13;;;12.80;99.90;;;;;;6241921;23;20042;-70
2023/05/31 01:56:08;;;;;;;9.90;7.30;;;12.70;99.90;;;;;;6242081;23;20418;-70
2023/05/31 01:58:41;;;;;;;11.90;7.43;;;12.70;99.90;;;;;;6241573;23;20004;-70
2023/05/31 02:01:10;;;;;;;10.05;7.82;;;12.80;99.90;;;;;;6242066;23;20091;-70
2023/05/31 02:03:36;;;;;;;11.32;8.23;;;12.70;99.90;;;;;;6241075;23;20004;-70
2023/05/31 02:06:02;;;;;;;12.13;8.93;;;12.70;99.90;;;;;;6242106;23;20000;-70
2023/05/31 02:08:27;;;;;;;12.60;9.90;;;12.70;99.90;;;;;;6241713;23;20014;-70
2023/05/31 02:10:54;;;;;;;11.18;8.70;;;12.70;99.90;;;;;;6242186;23;20000;-70
2023/05/31 02:13:22;;;;;;;15.50;9.38;;;12.70;99.90;;;;;;6241477;23;20070;-70
2023/05/31 02:15:48;;;;;;;12.38;8.85;;;12.60;99.90;;;;;;6242020;23;20008;-70
2023/05/31 02:18:16;;;;;;;13.32;9.40;;;12.60;99.90;;;;;;6240862;23;20076;-70
2023/05/31 02:20:42;;;;;;;11.73;9.23;;;12.60;99.90;;;;;;6241384;23;20444;-70
2023/05/31 02:23:08;;;;;;;13.55;10.68;;;12.60;99.90;;;;;;6241895;23;20007;-70
2023/05/31 02:25:34;;;;;;;14.63;10.50;;;12.60;99.90;;;;;;6241752;23;20000;-70
2023/05/31 02:27:59;;;;;;;13.10;10.27;;;12.60;99.90;;;;;;6241416;23;20318;-70
2023/05/31 02:30:27;;;;;;;15.70;11.48;;;12.70;99.90;;;;;;6241487;23;20026;-70
2023/05/31 02:32:53;;;;;;;17.90;11.75;;;12.60;99.90;;;;;;6241385;23;20016;-70
2023/05/31 02:35:19;;;;;;;17.83;11.00;;;12.60;99.90;;;;;;6241642;23;20012;-70
2023/05/31 02:37:46;;;;;;;15.63;11.60;;;12.60;99.90;;;;;;6241795;23;20008;-70
2023/05/31 02:40:13;;;;;;;16.65;9.85;;;12.60;99.90;;;;;;6241779;23;20000;-70
2023/05/31 02:42:41;;;;;;;15.43;10.50;;;12.60;99.90;;;;;;6241901;23;20008;-70
2023/05/31 02:45:08;;;;;;;15.45;11.18;;;12.60;99.90;;;;;;6241672;23;20008;-70
2023/05/31 02:47:36;;;;;;;14.77;10.38;;;12.60;99.90;;;;;;6214157;23;20084;-70
2023/05/31 02:50:02;;;;;;;14.25;10.02;;;12.60;99.90;;;;;;6241752;23;20005;-70
2023/05/31 02:52:27;;;;;;;15.30;10.45;;;12.60;99.90;;;;;;6241511;23;20003;-70
2023/05/31 02:54:53;;;;;;;13.10;9.93;;;12.60;99.90;;;;;;6241897;23;20004;-70
2023/05/31 02:57:18;;;;;;;11.95;10.57;;;12.60;99.90;;;;;;6241231;23;20012;-70
2023/05/31 02:59:45;;;;;;;15.20;10.35;;;12.50;99.90;;;;;;6241625;23;20070;-70
2023/05/31 03:02:11;;;;;;;12.68;9.75;;;12.50;99.90;;;;;;6240743;23;20005;-70
2023/05/31 03:04:37;;;;;;;13.32;10.35;;;12.50;99.90;;;;;;6241335;23;20027;-70
2023/05/31 03:07:03;;;;;;;16.98;10.45;;;12.50;99.90;;;;;;6239304;23;20004;-70
2023/05/31 03:09:29;;;;;;;13.75;9.70;;;12.50;99.90;;;;;;6238837;23;20004;-70
2023/05/31 03:11:54;;;;;;;13.23;10.38;;;12.50;99.90;;;;;;6239295;23;20127;-70
2023/05/31 03:14:20;;;;;;;15.20;11.23;;;12.50;99.90;;;;;;6238721;23;20418;-70
2023/05/31 03:16:46;;;;;;;16.48;12.02;;;12.50;99.90;;;;;;6238700;23;20016;-70
2023/05/31 03:19:14;;;;;;;16.27;11.95;;;12.50;99.90;;;;;;6239757;23;19996;-70
2023/05/31 03:21:40;;;;;;;16.92;10.80;;;12.40;99.90;;;;;;6213989;23;20035;-70
2023/05/31 03:24:05;;;;;;;14.43;11.10;;;12.40;99.90;;;;;;6243285;23;20004;-70
2023/05/31 03:26:31;;;;;;;17.05;11.90;;;12.40;99.90;;;;;;6242966;23;20442;-70
2023/05/31 03:28:57;;;;;;;20.20;13.35;;;12.40;99.90;;;;;;6243582;23;20004;-70
2023/05/31 03:31:22;;;;;;;19.58;12.65;;;12.40;99.90;;;;;;6242500;23;20012;-70
2023/05/31 03:33:50;;;;;;;15.13;11.20;;;12.40;99.90;;;;;;6243363;23;20007;-70
2023/05/31 03:36:16;;;;;;;15.85;12.32;;;12.40;99.90;;;;;;6243035;23;20050;-70
2023/05/31 03:38:41;;;;;;;14.45;11.57;;;12.40;99.90;;;;;;6243402;23;20004;-70
2023/05/31 03:41:07;;;;;;;21.58;14.35;;;12.40;99.90;;;;;;6215558;23;20023;-71
2023/05/31 03:43:32;;;;;;;16.25;12.85;;;12.30;99.90;;;;;;6243139;23;20251;-70
2023/05/31 03:46:00;;;;;;;17.45;12.70;;;12.40;99.90;;;;;;6215866;23;20000;-70
2023/05/31 03:48:27;;;;;;;19.38;13.57;;;12.40;99.90;;;;;;6242763;23;20004;-70
2023/05/31 03:50:53;;;;;;;18.13;13.63;;;12.40;99.90;;;;;;6243141;23;20454;-70
2023/05/31 03:53:18;;;;;;;21.60;12.65;;;12.40;99.90;;;;;;6242453;23;20031;-70
2023/05/31 03:55:44;;;;;;;21.63;13.32;;;12.40;99.90;;;;;;6243599;23;20043;-70
2023/05/31 03:58:10;;;;;;;17.50;13.13;;;12.40;99.90;;;;;;6242176;23;20000;-70
2023/05/31 04:00:36;;;;;;;16.50;12.20;;;12.40;99.90;;;;;;6243202;23;20069;-70
2023/05/31 04:03:02;;;;;;;16.10;13.70;;;12.40;99.90;;;;;;6216228;23;20099;-70
2023/05/31 04:05:27;;;;;;;23.17;13.05;;;12.40;99.90;;;;;;6242854;23;20000;-70
2023/05/31 04:07:53;;;;;;;20.02;13.80;;;12.40;99.90;;;;;;6242920;23;20135;-70
2023/05/31 04:10:18;;;;;;;20.63;13.07;;;12.50;99.90;;;;;;6242801;23;20011;-70
2023/05/31 04:12:44;;;;;;;18.35;13.90;;;12.50;99.90;;;;;;6242351;23;20041;-70
2023/05/31 04:15:10;;;;;;;15.55;11.35;;;12.50;99.90;;;;;;6242874;23;20000;-70
2023/05/31 04:17:35;;;;;;;17.35;13.52;;;12.50;99.90;;;;;;6242701;23;20079;-70
2023/05/31 04:20:01;;;;;;;18.85;13.18;;;12.50;99.90;;;;;;6242722;23;20032;-70
2023/05/31 04:22:26;;;;;;;23.20;13.38;;;12.40;99.90;;;;;;6242535;23;20007;-70
2023/05/31 04:24:52;;;;;;;18.92;14.27;;;12.50;99.90;;;;;;6242740;23;20359;-70
2023/05/31 04:27:18;;;;;;;19.15;12.23;;;12.50;99.90;;;;;;6241470;23;20019;-70
2023/05/31 04:29:50;;;;;;;18.23;13.27;;;12.50;99.90;;;;;;6242467;23;20311;-70
2023/05/31 04:32:15;;;;;;;19.73;12.80;;;12.50;99.90;;;;;;6242055;23;20422;-70
2023/05/31 04:34:41;;;;;;;22.80;14.32;;;12.50;99.90;;;;;;6242562;23;20215;-71
2023/05/31 04:37:08;;;;;;;20.50;13.65;;;12.50;99.90;;;;;;6241675;23;20004;-70
2023/05/31 04:39:34;;;;;;;20.98;13.02;;;12.50;99.90;;;;;;6215496;23;20004;-71
2023/05/31 04:42:00;;;;;;;20.35;13.55;;;12.50;99.90;;;;;;6242153;23;20066;-70
2023/05/31 04:44:26;;;;;;;19.08;14.02;;;12.50;99.90;;;;;;6242333;23;19997;-70
2023/05/31 04:46:51;;;;;;;17.52;13.80;;;12.50;99.90;;;;;;6242532;23;20008;-70
2023/05/31 04:49:18;;;;;;;21.40;15.10;;;12.60;99.90;;;;;;6242323;23;20000;-70
2023/05/31 04:51:44;;;;;;;19.15;13.85;;;12.60;99.90;;;;;;6242464;23;20004;-70
2023/05/31 04:54:10;;;;;;;20.27;15.20;;;12.60;99.90;;;;;;6242503;23;20047;-70
2023/05/31 04:56:35;;;;;;;23.77;14.98;;;12.60;99.90;;;;;;6241533;23;20069;-70
2023/05/31 04:59:01;;;;;;;18.85;14.95;;;12.60;99.90;;;;;;6242950;23;20003;-70
2023/05/31 05:01:27;;;;;;;17.85;14.27;;;12.70;99.90;;;;;;6214985;23;19996;-70
2023/05/31 05:03:53;;;;;;;20.05;14.07;;;12.70;99.90;;;;;;6242284;23;20031;-70
2023/05/31 05:06:18;;;;;;;20.85;15.02;;;12.70;99.90;;;;;;6241880;23;19996;-70
2023/05/31 05:08:45;;;;;;;20.33;15.10;;;12.70;99.90;;;;;;6241908;23;20370;-70
2023/05/31 05:11:11;;;;;;;20.80;14.70;;;12.70;99.90;;;;;;6238991;23;20008;-70
2023/05/31 05:13:37;;;;;;;21.45;15.48;;;12.80;99.90;;;;;;6241916;23;19999;-70
2023/05/31 05:16:03;;;;;;;20.98;14.65;;;12.90;99.90;;;;;;6241349;23;20062;-70
2023/05/31 05:18:29;;;;;;;22.95;15.90;;;12.90;99.90;;;;;;6242019;23;20031;-70
2023/05/31 05:20:56;;;;;;;25.17;16.67;;;13.00;99.90;;;;;;6242649;23;20000;-70
2023/05/31 05:23:22;;;;;;;21.92;14.85;;;13.00;99.90;;;;;;6242039;23;20084;-70
2023/05/31 05:25:48;;;;;;;20.67;15.18;;;13.00;99.90;;;;;;6241983;23;20008;-70
2023/05/31 05:28:13;;;;;;;25.25;17.08;;;13.00;99.90;;;;;;6242010;23;20099;-70
2023/05/31 05:30:39;;;;;;;21.02;15.38;;;13.00;99.90;;;;;;6242251;23;20001;-70
2023/05/31 05:33:04;;;;;;;24.98;17.13;;;13.10;99.90;;;;;;6242240;23;20008;-70
2023/05/31 05:35:30;;;;;;;21.05;15.85;;;13.00;99.90;;;;;;6241948;23;20004;-70
2023/05/31 05:37:57;;;;;;;15.18;12.90;;;13.10;99.90;;;;;;6242285;23;20107;-70
2023/05/31 05:40:23;;;;;;;22.58;16.23;;;13.20;99.90;;;;;;6241825;23;20106;-71
2023/05/31 05:42:49;;;;;;;26.55;15.63;;;13.20;99.90;;;;;;6241902;23;19996;-71
2023/05/31 05:45:15;;;;;;;25.08;16.35;;;13.30;99.90;;;;;;6241937;23;20008;-71
2023/05/31 05:47:44;;;;;;;24.75;17.73;;;13.30;99.90;;;;;;6242176;23;20008;-71
2023/05/31 05:50:11;;;;;;;19.63;14.70;;;13.40;99.90;;;;;;6242243;23;20315;-73
2023/05/31 05:52:37;;;;;;;17.30;13.02;;;13.40;99.90;;;;;;6242077;23;20008;-74
2023/05/31 05:55:03;;;;;;;19.60;15.10;;;13.50;99.90;;;;;;6241279;23;20007;-74
2023/05/31 05:57:29;;;;;;;24.25;15.57;;;13.60;99.90;;;;;;6240591;23;20004;-73
2023/05/31 05:59:55;;;;;;;22.02;15.70;;;13.60;99.90;;;;;;6242094;23;20050;-73
2023/05/31 06:02:21;;;;;;;22.38;16.08;;;13.60;99.90;;;;;;6241535;23;20079;-72
2023/05/31 06:04:46;;;;;;;21.17;14.45;;;13.70;99.90;;;;;;6242154;23;20031;-73
2023/05/31 06:07:12;;;;;;;20.63;15.73;;;13.80;99.90;;;;;;6241753;23;20032;-73
2023/05/31 06:09:38;;;;;;;18.77;14.32;;;13.90;99.90;;;;;;6214849;23;20031;-73
2023/05/31 06:12:03;;;;;;;25.90;15.75;;;13.90;99.90;;;;;;6242068;23;20433;-73
2023/05/31 06:14:29;;;;;;;18.65;14.15;;;14.00;99.90;;;;;;6242214;23;20418;-73
2023/05/31 06:16:55;;;;;;;23.25;13.50;;;14.10;99.90;;;;;;6242169;23;20000;-73
2023/05/31 06:19:20;;;;;;;17.05;12.80;;;14.20;99.90;;;;;;6242045;23;20327;-73
2023/05/31 06:21:46;;;;;;;22.55;13.45;;;14.20;99.90;;;;;;6242117;23;20110;-73
2023/05/31 06:24:11;;;;;;;20.48;13.00;;;14.30;99.90;;;;;;6241426;23;20000;-74
2023/05/31 06:26:38;;;;;;;15.38;11.13;;;14.40;99.90;;;;;;6241806;23;20027;-73
2023/05/31 06:29:04;;;;;;;16.83;12.00;;;14.50;99.90;;;;;;6242217;23;20142;-72
2023/05/31 06:31:31;;;;;;;14.05;10.73;;;14.60;99.90;;;;;;6241847;23;20000;-73
2023/05/31 06:33:56;;;;;;;14.82;11.07;;;14.60;99.90;;;;;;6242295;23;20004;-73
2023/05/31 06:36:22;;;;;;;15.52;10.60;;;14.70;99.90;;;;;;6241932;23;20058;-74
2023/05/31 06:38:48;;;;;;;14.70;9.98;;;14.80;99.90;;;;;;6241122;23;20000;-73
2023/05/31 06:41:13;;;;;;;17.38;10.05;;;14.90;99.90;;;;;;6241796;23;20000;-73
2023/05/31 06:43:39;;;;;;;16.60;9.68;;;15.00;99.90;;;;;;6242199;23;20198;-73
2023/05/31 06:46:07;;;;;;;12.88;10.10;;;15.00;99.90;;;;;;6241739;23;19997;-73
2023/05/31 06:48:33;;;;;;;11.23;8.57;;;15.10;99.90;;;;;;6241843;23;20000;-73
2023/05/31 06:50:58;;;;;;;11.43;8.70;;;15.20;99.90;;;;;;6242203;23;20008;-73
2023/05/31 06:53:24;;;;;;;14.45;8.23;;;15.30;99.90;;;;;;6241089;23;20035;-72
2023/05/31 06:55:49;;;;;;;13.48;8.00;;;15.40;99.90;;;;;;6238553;23;20018;-72
2023/05/31 06:58:17;;;;;;;14.35;8.10;;;15.50;99.90;;;;;;6242403;23;20000;-71
2023/05/31 07:00:42;;;;;;;13.43;8.05;;;15.70;99.90;;;;;;6239374;23;20620;-74
2023/05/31 07:03:08;;;;;;;12.50;8.55;;;15.70;99.90;;;;;;6241911;23;20007;-72
2023/05/31 07:05:34;;;;;;;9.45;7.22;;;15.80;99.90;;;;;;6215473;23;20417;-72
2023/05/31 07:08:00;;;;;;;12.10;7.65;;;15.90;99.90;;;;;;6242459;23;20023;-72
2023/05/31 07:10:27;;;;;;;12.43;6.90;;;16.00;99.90;;;;;;6243211;23;20008;-72
2023/05/31 07:12:53;;;;;;;13.57;7.70;;;16.10;99.90;;;;;;6243563;23;20004;-72
2023/05/31 07:15:19;;;;;;;11.00;6.55;;;16.10;99.90;;;;;;6241672;23;20071;-72
2023/05/31 07:17:45;;;;;;;8.20;5.60;;;16.20;99.90;;;;;;6243147;23;20051;-72
2023/05/31 07:20:11;;;;;;;11.95;7.53;;;16.30;99.90;;;;;;6243151;23;20477;-72
2023/05/31 07:22:37;;;;;;;14.02;7.03;;;16.40;99.90;;;;;;6242721;23;20000;-72
2023/05/31 07:25:03;;;;;;;12.63;7.07;;;16.60;99.90;;;;;;6241728;23;20075;-72
2023/05/31 07:27:30;;;;;;;11.77;7.07;;;16.70;99.90;;;;;;6242943;23;20016;-72
2023/05/31 07:29:55;;;;;;;9.73;6.05;;;16.80;99.90;;;;;;6243051;23;20420;-72
2023/05/31 07:32:21;;;;;;;12.77;6.93;;;16.90;99.90;;;;;;6242969;23;20010;-72
2023/05/31 07:34:47;;;;;;;12.02;7.53;;;17.00;99.70;;;;;;6243572;23;19996;-72
2023/05/31 07:37:13;;;;;;;15.07;6.13;;;17.10;99.40;;;;;;6240817;23;20325;-72
2023/05/31 07:39:38;;;;;;;10.95;6.53;;;17.20;99.40;;;;;;6216631;23;20000;-72
2023/05/31 07:42:04;;;;;;;9.32;6.15;;;17.40;99.40;;;;;;6216609;23;20011;-72
2023/05/31 07:44:30;;;;;;;12.93;6.47;;;17.50;99.00;;;;;;6242003;23;20426;-72
2023/05/31 07:46:56;;;;;;;10.05;6.47;;;17.60;98.90;;;;;;6241766;23;20063;-72
2023/05/31 07:49:21;;;;;;;12.43;5.90;;;17.80;98.50;;;;;;6215394;23;20004;-72
2023/05/31 07:51:47;;;;;;;10.95;6.90;;;17.90;98.40;;;;;;6242322;23;20342;-72
2023/05/31 07:54:12;;;;;;;10.30;5.38;;;18.00;98.00;;;;;;6242303;23;20418;-72
2023/05/31 07:56:38;;;;;;;9.50;6.35;;;18.10;97.80;;;;;;6242930;23;20011;-72
2023/05/31 07:59:04;;;;;;;10.27;6.18;;;18.20;97.40;;;;;;6241879;23;20001;-72
2023/05/31 08:01:29;;;;;;;8.45;5.88;;;18.20;97.20;;;;;;6243009;23;20012;-72
2023/05/31 08:04:04;;;;;;;8.05;5.68;;;18.30;97.20;;;;;;6216148;23;20004;-71
2023/05/31 08:06:30;;;;;;;13.93;6.45;;;18.40;97.20;;;;;;6242184;23;20006;-71
2023/05/31 08:08:55;;;;;;;9.63;6.22;;;18.50;97.10;;;;;;6242094;23;20088;-72
2023/05/31 08:11:21;;;;;;;11.23;4.80;;;18.70;97.00;;;;;;6242656;23;20078;-72
2023/05/31 08:13:46;;;;;;;9.40;5.32;;;18.80;96.80;;;;;;6243363;23;20036;-72
2023/05/31 08:16:12;;;;;;;7.60;5.22;;;18.90;96.50;;;;;;6242576;23;20000;-71
2023/05/31 08:18:37;;;;;;;9.85;5.80;;;19.00;96.40;;;;;;6241769;23;20012;-72
2023/05/31 08:21:04;;;;;;;8.00;5.65;;;19.10;95.50;;;;;;6241980;23;19996;-72
2023/05/31 08:23:29;;;;;;;9.95;6.57;;;19.10;95.60;;;;;;6242831;23;20373;-72
2023/05/31 08:25:56;;;;;;;11.90;5.38;;;19.20;95.30;;;;;;6242435;23;19997;-71
2023/05/31 08:28:21;;;;;;;8.48;6.00;;;19.30;95.20;;;;;;6242607;23;20007;-72
2023/05/31 08:30:48;;;;;;;10.65;5.82;;;19.40;95.00;;;;;;6241211;23;20000;-72
2023/05/31 08:33:13;;;;;;;9.40;5.90;;;19.40;94.70;;;;;;6242588;23;20004;-72
2023/05/31 08:35:40;;;;;;;12.43;5.35;;;19.40;94.80;;;;;;6242026;23;20326;-72
2023/05/31 08:38:06;;;;;;;8.40;5.05;;;19.60;94.70;;;;;;6242689;23;20007;-72
2023/05/31 08:40:32;;;;;;;12.40;5.75;;;19.70;94.60;;;;;;6242344;23;20778;-72
2023/05/31 08:43:07;;;;;;;10.55;5.97;;;19.80;94.50;;;;;;6245017;23;20435;-72
2023/05/31 08:45:35;;;;;;;8.05;4.88;;;19.90;93.90;;;;;;6243518;23;20004;-72
2023/05/31 08:48:10;;;;;;;10.50;6.72;;;19.90;93.60;;;;;;6242844;23;20076;-72
2023/05/31 08:50:36;;;;;;;12.85;6.03;;;20.00;93.40;;;;;;6242188;23;20026;-72
2023/05/31 08:53:04;;;;;;;11.38;5.78;;;20.00;93.40;;;;;;6242023;23;20485;-72
2023/05/31 08:55:30;;;;;;;9.70;5.53;;;20.10;93.20;;;;;;6242327;23;19996;-72
2023/05/31 08:57:57;;;;;;;10.68;4.88;;;20.20;92.80;;;;;;6244073;23;20005;-72
2023/05/31 09:00:23;;;;;;;10.27;5.25;;;20.20;92.20;;;;;;6244251;23;20000;-71
2023/05/31 09:02:51;;;;;;;8.75;5.63;;;20.20;92.00;;;;;;6240937;23;20000;-72
2023/05/31 09:05:17;;;;;;;9.00;5.50;;;20.30;91.90;;;;;;6242242;23;19996;-72
2023/05/31 09:07:43;;;;;;;8.60;4.85;;;20.40;92.10;;;;;;6242972;23;20004;-71
2023/05/31 09:10:09;;;;;;;10.27;4.32;;;20.50;91.90;;;;;;6242621;23;20016;-72
2023/05/31 09:12:36;;;;;;;12.27;5.18;;;20.60;91.90;;;;;;6213535;23;20424;-72
2023/05/31 09:15:03;;;;;;;14.57;5.70;;;20.70;91.70;;;;;;6242183;23;20059;-71
2023/05/31 09:17:30;;;;;;;8.35;4.75;;;20.70;91.30;;;;;;6241294;23;20008;-71
2023/05/31 09:19:56;;;;;;;8.57;5.05;;;20.80;90.80;;;;;;6242593;23;20436;-72
2023/05/31 09:22:22;;;;;;;10.93;4.53;;;20.80;90.80;;;;;;6242161;23;20024;-72
2023/05/31 09:24:56;;;;;;;8.38;4.45;;;20.80;90.70;;;;;;6240986;23;20049;-71
2023/05/31 09:27:23;;;;;;;7.50;4.15;;;20.90;90.50;;;;;;6242055;23;20023;-72
2023/05/31 09:29:54;;;;;;;10.15;4.63;;;20.90;90.60;;;;;;6242623;23;20000;-72
2023/05/31 09:32:20;;;;;;;8.85;4.30;;;21.10;90.20;;;;;;6241679;23;20050;-72
2023/05/31 09:34:47;;;;;;;7.75;4.72;;;21.10;90.10;;;;;;6241359;23;20000;-72
2023/05/31 09:37:23;;;;;;;10.07;4.13;;;21.20;89.10;;;;;;6241924;23;20031;-73
2023/05/31 09:39:58;;;;;;;8.38;4.45;;;21.20;89.40;;;;;;6242374;23;20067;-72
2023/05/31 09:42:28;;;;;;;8.05;3.67;;;21.30;87.70;;;;;;6242113;23;20000;-72
2023/05/31 09:44:54;;;;;;;10.13;4.53;;;21.30;87.60;;;;;;6240739;23;19996;-72
2023/05/31 09:47:25;;;;;;;6.18;3.13;;;21.40;87.00;;;;;;6214318;23;20058;-72
2023/05/31 09:49:53;;;;;;;8.02;3.92;;;21.50;87.40;;;;;;6215289;23;20375;-72
2023/05/31 09:52:26;;;;;;;9.00;3.60;;;21.60;87.20;;;;;;6241674;23;20000;-72
2023/05/31 09:54:52;;;;;;;8.73;3.35;;;21.70;86.70;;;;;;6241779;23;20005;-72
2023/05/31 09:57:46;;;;;;;10.77;3.75;;;21.70;87.00;;;;;;6240585;23;20000;-72
2023/05/31 10:00:14;;;;;;;10.10;3.63;;;21.90;86.70;;;;;;6214538;23;20592;-72
2023/05/31 10:02:42;;;;;;;7.45;3.50;;;21.90;84.70;;;;;;6241136;23;20003;-72
2023/05/31 10:05:09;;;;;;;10.55;3.42;;;22.00;83.70;;;;;;6241898;23;20377;-71
2023/05/31 10:07:36;;;;;;;6.63;3.20;;;22.00;82.90;;;;;;6240688;23;20031;-72
2023/05/31 10:10:02;;;;;;;9.85;3.88;;;22.00;82.60;;;;;;6242134;23;20030;-72
2023/05/31 10:12:31;;;;;;;3.58;2.00;;;22.00;82.30;;;;;;6241649;23;20103;-71
2023/05/31 10:15:08;;;;;;;7.95;3.05;;;22.10;81.50;;;;;;6241890;23;20012;-72
2023/05/31 10:17:38;;;;;;;8.13;3.08;;;22.10;81.00;;;;;;6238965;23;20000;-72
2023/05/31 10:20:08;;;;;;;8.38;3.22;;;22.20;81.80;;;;;;6241590;23;20043;-72
2023/05/31 10:22:38;;;;;;;5.70;2.40;;;22.20;80.40;;;;;;6241328;23;20004;-72
2023/05/31 10:25:09;;;;;;;7.85;2.88;;;22.20;80.30;;;;;;6242137;23;20047;-72
2023/05/31 10:27:41;;;;;;;7.47;2.42;;;22.30;80.00;;;;;;6240299;23;20023;-72
2023/05/31 10:30:09;;;;;;;7.53;3.08;;;22.40;79.30;;;;;;6242726;23;20022;-72
2023/05/31 10:32:45;;;;;;;5.40;2.78;;;22.40;79.50;;;;;;6244156;23;20020;-72
2023/05/31 10:35:11;;;;;;;9.65;3.40;;;22.40;79.20;;;;;;6216879;23;20004;-72
2023/05/31 10:37:41;;;;;;;9.82;3.35;;;22.40;79.40;;;;;;6217287;23;20042;-72
2023/05/31 10:40:13;;;;;;;6.60;2.50;;;22.50;79.10;;;;;;6243942;23;20000;-71
2023/05/31 10:43:03;;;;;;;5.05;2.72;;;22.50;79.20;;;;;;6217679;23;20000;-72
2023/05/31 10:45:49;;;;;;;6.15;2.65;;;22.60;78.40;;;;;;6216561;23;20011;-72
2023/05/31 10:48:33;;;;;;;7.68;2.70;;;22.60;77.80;;;;;;6216004;23;20012;-72
2023/05/31 10:51:00;;;;;;;10.13;3.65;;;22.60;78.10;;;;;;6244405;23;20007;-72
2023/05/31 10:53:31;;;;;;;11.13;4.07;;;22.60;77.90;;;;;;6242398;23;20008;-72
2023/05/31 10:56:04;;;;;;;7.50;3.42;;;22.60;77.80;;;;;;6243831;23;20007;-71
2023/05/31 10:58:38;;;;;;;5.72;3.28;;;22.60;77.70;;;;;;6216620;23;20082;-70
2023/05/31 11:01:14;;;;;;;11.07;3.53;;;22.60;78.30;;;;;;6243821;23;20050;-73
2023/05/31 11:03:46;;;;;;;9.45;3.65;;;22.70;78.50;;;;;;6243847;23;20004;-74
2023/05/31 11:06:13;;;;;;;10.63;3.08;;;22.80;78.50;;;;;;6241993;23;20430;-71
2023/05/31 11:08:56;;;;;;;6.30;2.88;;;22.80;78.10;;;;;;6242998;23;20008;-71
2023/05/31 11:11:31;;;;;;;6.10;2.97;;;22.90;77.60;;;;;;6243437;23;20105;-71
2023/05/31 11:14:03;;;;;;;9.90;4.93;;;22.90;77.80;;;;;;6242771;23;20004;-72
2023/05/31 11:16:32;;;;;;;5.15;2.75;;;22.90;76.30;;;;;;6243191;23;19996;-71
2023/05/31 11:19:13;;;;;;;7.80;2.55;;;22.90;76.60;;;;;;6242237;23;20334;-70
2023/05/31 11:21:53;;;;;;;8.48;3.10;;;22.90;77.50;;;;;;6243275;23;20000;-72
2023/05/31 11:24:27;;;;;;;8.07;3.08;;;23.00;76.70;;;;;;6243064;23;20365;-71
2023/05/31 11:27:04;;;;;;;5.47;3.15;;;22.90;75.50;;;;;;6243398;23;20008;-71
2023/05/31 11:29:53;;;;;;;10.40;3.22;;;23.00;75.80;;;;;;6215234;23;20362;-72
2023/05/31 11:32:19;;;;;;;4.82;3.58;;;23.10;75.80;;;;;;6091145;23;20036;-72
2023/05/31 11:34:53;;;;;;;10.20;3.28;;;23.10;75.20;;;;;;6092047;23;20440;-72
2023/05/31 11:37:21;;;;;;;6.70;2.95;;;23.10;75.30;;;;;;6091579;23;20081;-73
2023/05/31 11:39:46;;;;;;;4.80;2.67;;;23.10;74.70;;;;;;6091772;23;20523;-73
2023/05/31 11:42:14;;;;;;;6.95;2.75;;;23.10;74.80;;;;;;6091151;23;20137;-73
2023/05/31 11:44:42;;;;;;;7.00;2.78;;;23.20;75.10;;;;;;6091790;23;20006;-73
2023/05/31 11:47:10;;;;;;;8.68;2.65;;;23.20;75.20;;;;;;6090724;23;20472;-72
2023/05/31 11:49:37;;;;;;;7.88;2.60;;;23.20;74.40;;;;;;6092013;23;20082;-73
2023/05/31 11:52:04;;;;;;;7.10;2.72;;;23.30;73.30;;;;;;6091686;23;20086;-72
2023/05/31 11:54:32;;;;;;;10.60;3.70;;;23.20;72.70;;;;;;6091661;23;20082;-73
2023/05/31 11:57:06;;;;;;;6.03;2.95;;;23.20;73.00;;;;;;6090689;23;20002;-72
2023/05/31 11:59:33;;;;;;;7.55;2.78;;;23.30;73.50;;;;;;6091501;23;20013;-73
2023/05/31 12:02:02;;;;;;;11.27;3.70;;;23.30;73.80;;;;;;6091715;23;20025;-73
2023/05/31 12:04:32;;;;;;;8.20;3.75;;;23.40;73.90;;;;;;6069301;23;20029;-72
2023/05/31 12:06:58;;;;;;;5.85;3.10;;;23.30;74.20;;;;;;6093287;23;20090;-72
2023/05/31 12:09:25;;;;;;;7.88;3.42;;;23.40;74.70;;;;;;6174367;23;20008;-72
2023/05/31 12:11:51;;;;;;;10.55;4.35;;;23.40;75.10;;;;;;6242614;23;19997;-71
2023/05/31 12:14:17;;;;;;;5.68;2.95;;;23.50;75.30;;;;;;6215943;23;20004;-72
2023/05/31 12:16:44;;;;;;;11.95;3.80;;;23.50;75.10;;;;;;6242819;23;20304;-72
2023/05/31 12:19:13;;;;;;;11.27;4.25;;;23.50;74.50;;;;;;6243515;23;19996;-72
2023/05/31 12:21:38;;;;;;;9.88;3.80;;;23.60;74.20;;;;;;6244231;23;19997;-71
2023/05/31 12:24:17;;;;;;;15.25;4.70;;;23.70;73.90;;;;;;6244315;23;20016;-72
2023/05/31 12:26:44;;;;;;;8.93;4.25;;;23.70;74.20;;;;;;6216464;23;20314;-73
2023/05/31 12:29:14;;;;;;;8.65;4.22;;;23.80;74.60;;;;;;6243930;23;20078;-74
2023/05/31 12:31:40;;;;;;;8.45;4.05;;;23.80;74.20;;;;;;6242953;23;20007;-72
2023/05/31 12:34:06;;;;;;;6.25;3.33;;;23.80;73.70;;;;;;6242717;23;19996;-72
2023/05/31 12:36:46;;;;;;;7.85;4.03;;;23.80;73.40;;;;;;6215415;23;20417;-72
2023/05/31 12:39:20;;;;;;;10.52;3.70;;;23.80;72.50;;;;;;6242635;23;20473;-72
2023/05/31 12:41:47;;;;;;;7.28;3.55;;;23.80;73.10;;;;;;6214412;23;20004;-72